createdAt,value
2018-10-07T00:00:31.355Z,17.37
2018-10-07T00:02:59.663Z,20.17
2018-10-07T00:05:27.967Z,19.30
2018-10-07T00:07:56.270Z,19.20
2018-10-07T00:10:24.579Z,19.97
2018-10-07T00:12:52.879Z,18.37
2018-10-07T00:15:21.191Z,19.67
2018-10-07T00:17:49.483Z,18.33
2018-10-07T00:20:17.771Z,19.73
2018-10-07T00:22:46.074Z,20.07
2018-10-07T00:25:14.365Z,20.50
2018-10-07T00:27:42.672Z,19.67
2018-10-07T00:30:10.959Z,19.27
2018-10-07T00:32:39.267Z,18.97
2018-10-07T00:35:07.587Z,18.87
2018-10-07T00:37:35.891Z,18.50
2018-10-07T00:40:04.174Z,17.63
2018-10-07T00:42:32.471Z,19.90
2018-10-07T00:45:00.779Z,20.60
2018-10-07T00:47:29.065Z,19.67
2018-10-07T00:49:57.645Z,20.80
2018-10-07T00:52:25.944Z,19.70
2018-10-07T00:54:54.247Z,18.70
2018-10-07T00:57:22.535Z,18.33
2018-10-07T00:59:50.830Z,19.10
2018-10-07T01:02:19.135Z,19.00
2018-10-07T01:04:47.436Z,18.30
2018-10-07T01:07:15.743Z,18.97
2018-10-07T01:09:44.044Z,20.13
2018-10-07T01:12:12.340Z,18.70
2018-10-07T01:14:40.639Z,19.00
2018-10-07T01:17:08.935Z,20.10
2018-10-07T01:19:37.239Z,19.80
2018-10-07T01:22:05.531Z,19.60
2018-10-07T01:24:33.842Z,18.90
2018-10-07T01:27:02.131Z,18.67
2018-10-07T01:29:30.419Z,19.70
2018-10-07T01:31:58.719Z,18.80
2018-10-07T01:34:27.019Z,18.67
2018-10-07T01:36:55.330Z,18.40
2018-10-07T01:39:23.628Z,19.20
2018-10-07T01:41:51.925Z,19.63
2018-10-07T01:44:20.223Z,18.10
2018-10-07T01:46:48.520Z,19.47
2018-10-07T01:49:16.827Z,18.87
2018-10-07T01:51:45.119Z,18.23
2018-10-07T01:54:13.414Z,18.70
2018-10-07T01:56:41.724Z,19.10
2018-10-07T01:59:10.036Z,19.30
2018-10-07T02:01:38.307Z,19.97
2018-10-07T02:04:06.611Z,17.93
2018-10-07T02:06:34.903Z,19.30
2018-10-07T02:09:03.215Z,18.83
2018-10-07T02:11:31.502Z,19.43
2018-10-07T02:13:59.814Z,20.10
2018-10-07T02:16:28.098Z,20.30
2018-10-07T02:18:56.392Z,20.23
2018-10-07T02:21:24.687Z,19.17
2018-10-07T02:23:52.991Z,19.17
2018-10-07T02:26:21.287Z,19.97
2018-10-07T02:28:49.598Z,20.50
2018-10-07T02:31:17.894Z,19.87
2018-10-07T02:33:46.227Z,20.20
2018-10-07T02:36:14.507Z,19.20
2018-10-07T02:38:42.803Z,21.57
2018-10-07T02:41:11.099Z,18.87
2018-10-07T02:43:39.407Z,19.47
2018-10-07T02:46:07.710Z,19.90
2018-10-07T02:48:36.032Z,19.60
2018-10-07T02:51:04.318Z,19.60
2018-10-07T02:53:32.616Z,20.80
2018-10-07T02:56:01.125Z,18.97
2018-10-07T02:58:29.414Z,19.07
2018-10-07T03:00:57.716Z,20.83
2018-10-07T03:03:26.027Z,18.73
2018-10-07T03:05:54.320Z,20.40
2018-10-07T03:08:22.627Z,18.90
2018-10-07T03:10:50.919Z,19.20
2018-10-07T03:13:19.216Z,19.90
2018-10-07T03:15:47.523Z,20.70
2018-10-07T03:18:15.819Z,20.13
2018-10-07T03:20:44.111Z,21.33
2018-10-07T03:23:12.414Z,19.60
2018-10-07T03:25:40.706Z,20.43
2018-10-07T03:28:09.024Z,19.27
2018-10-07T03:30:37.315Z,19.97
2018-10-07T03:33:05.610Z,20.20
2018-10-07T03:35:33.927Z,20.17
2018-10-07T03:38:02.227Z,22.10
2018-10-07T03:40:30.519Z,20.00
2018-10-07T03:42:58.839Z,20.87
2018-10-07T03:45:27.127Z,21.47
2018-10-07T03:47:55.435Z,20.80
2018-10-07T03:50:23.730Z,22.17
2018-10-07T03:52:52.019Z,22.63
2018-10-07T03:55:20.328Z,22.13
2018-10-07T03:57:48.629Z,23.20
2018-10-07T04:00:16.920Z,22.90
2018-10-07T04:02:45.222Z,21.83
2018-10-07T04:05:13.515Z,22.87
2018-10-07T04:07:41.819Z,21.67
2018-10-07T04:10:10.115Z,21.50
2018-10-07T04:12:38.419Z,21.77
2018-10-07T04:15:06.723Z,20.30
2018-10-07T04:17:35.015Z,21.10
2018-10-07T04:20:03.323Z,20.50
2018-10-07T04:22:31.611Z,20.53
2018-10-07T04:24:59.928Z,19.33
2018-10-07T04:27:28.220Z,19.47
2018-10-07T04:29:56.522Z,21.00
2018-10-07T04:32:24.820Z,20.60
2018-10-07T04:34:53.123Z,20.07
2018-10-07T04:37:21.478Z,20.23
2018-10-07T04:39:49.806Z,23.70
2018-10-07T04:42:18.076Z,22.93
2018-10-07T04:44:46.386Z,23.40
2018-10-07T04:47:14.680Z,21.57
2018-10-07T04:49:42.972Z,20.00
2018-10-07T04:52:11.279Z,20.33
2018-10-07T04:54:39.581Z,22.03
2018-10-07T04:57:07.867Z,22.40
2018-10-07T04:59:36.179Z,22.80
2018-10-07T05:02:04.476Z,22.80
2018-10-07T05:04:32.770Z,23.47
2018-10-07T05:07:01.077Z,22.13
2018-10-07T05:09:29.371Z,21.30
2018-10-07T05:11:57.709Z,24.63
2018-10-07T05:14:25.966Z,22.20
2018-10-07T05:16:54.255Z,24.13
2018-10-07T05:19:22.548Z,23.40
2018-10-07T05:21:50.859Z,23.57
2018-10-07T05:24:19.146Z,22.43
2018-10-07T05:26:47.443Z,23.77
2018-10-07T05:29:15.747Z,23.00
2018-10-07T05:31:44.037Z,23.87
2018-10-07T05:34:12.326Z,22.97
2018-10-07T05:36:40.635Z,21.30
2018-10-07T05:39:08.942Z,22.93
2018-10-07T05:41:37.239Z,23.80
2018-10-07T05:44:05.547Z,21.70
2018-10-07T05:46:33.892Z,22.03
2018-10-07T05:49:02.187Z,22.20
2018-10-07T05:51:30.498Z,23.20
2018-10-07T05:53:58.787Z,21.90
2018-10-07T05:56:27.088Z,22.57
2018-10-07T05:58:55.398Z,21.63
2018-10-07T06:01:23.694Z,22.63
2018-10-07T06:03:51.987Z,23.20
2018-10-07T06:06:20.345Z,21.30
2018-10-07T06:08:48.634Z,22.07
2018-10-07T06:11:16.923Z,22.27
2018-10-07T06:13:45.230Z,22.00
2018-10-07T06:16:13.519Z,23.17
2018-10-07T06:18:41.806Z,21.13
2018-10-07T06:21:10.110Z,22.33
2018-10-07T06:23:38.407Z,23.60
2018-10-07T06:26:06.699Z,23.07
2018-10-07T06:28:35.013Z,23.20
2018-10-07T06:31:03.306Z,23.03
2018-10-07T06:33:31.599Z,21.93
2018-10-07T06:35:59.911Z,24.13
2018-10-07T06:38:28.274Z,23.50
2018-10-07T06:40:56.507Z,22.07
2018-10-07T06:43:24.816Z,21.80
2018-10-07T06:45:53.136Z,22.33
2018-10-07T06:48:21.439Z,24.20
2018-10-07T06:50:49.743Z,22.80
2018-10-07T06:53:18.040Z,23.37
2018-10-07T06:55:46.330Z,21.90
2018-10-07T06:58:14.635Z,22.17
2018-10-07T07:00:42.932Z,22.80
2018-10-07T07:03:11.226Z,21.87
2018-10-07T07:05:39.537Z,22.20
2018-10-07T07:08:07.831Z,22.20
2018-10-07T07:10:36.127Z,21.83
2018-10-07T07:13:04.635Z,21.50
2018-10-07T07:15:32.908Z,21.97
2018-10-07T07:18:01.195Z,21.27
2018-10-07T07:20:29.523Z,20.80
2018-10-07T07:22:57.831Z,19.27
2018-10-07T07:25:26.147Z,21.17
2018-10-07T07:27:54.459Z,22.27
2018-10-07T07:30:22.759Z,22.10
2018-10-07T07:32:51.075Z,23.17
2018-10-07T07:35:19.381Z,19.77
2018-10-07T07:37:47.671Z,20.10
2018-10-07T07:40:15.975Z,20.77
2018-10-07T07:42:44.293Z,22.07
2018-10-07T07:45:12.587Z,22.13
2018-10-07T07:47:40.882Z,22.17
2018-10-07T07:50:09.198Z,21.43
2018-10-07T07:52:37.490Z,19.40
2018-10-07T07:55:05.784Z,19.33
2018-10-07T07:57:34.091Z,18.00
2018-10-07T08:00:02.468Z,17.20
2018-10-07T08:02:30.759Z,18.50
2018-10-07T08:04:59.071Z,18.37
2018-10-07T08:07:27.374Z,19.13
2018-10-07T08:09:55.661Z,14.93
2018-10-07T08:12:23.959Z,15.30
2018-10-07T08:14:52.328Z,14.37
2018-10-07T08:17:20.599Z,14.07
2018-10-07T08:19:48.872Z,13.03
2018-10-07T08:22:17.160Z,21.80
2018-10-07T08:24:45.448Z,25.07
2018-10-07T08:27:13.753Z,23.20
2018-10-07T08:29:42.129Z,19.90
2018-10-07T08:32:10.316Z,16.77
2018-10-07T08:34:38.626Z,16.37
2018-10-07T08:37:06.902Z,15.47
2018-10-07T08:39:35.187Z,16.37
2018-10-07T08:42:03.583Z,14.10
2018-10-07T08:44:31.871Z,14.70
2018-10-07T08:47:00.155Z,14.97
2018-10-07T08:49:28.462Z,15.50
2018-10-07T08:51:56.742Z,14.37
2018-10-07T08:54:25.158Z,14.57
2018-10-07T08:56:53.423Z,13.33
2018-10-07T08:59:21.707Z,12.80
2018-10-07T09:01:49.999Z,13.00
2018-10-07T09:04:18.299Z,12.50
2018-10-07T09:06:46.588Z,12.20
2018-10-07T09:09:14.871Z,11.73
2018-10-07T09:11:43.162Z,11.73
2018-10-07T09:14:11.443Z,11.30
2018-10-07T09:16:39.739Z,11.03
2018-10-07T09:19:08.023Z,12.67
2018-10-07T09:21:36.311Z,12.80
2018-10-07T09:24:04.607Z,13.40
2018-10-07T09:26:32.892Z,12.80
2018-10-07T09:29:01.230Z,12.50
2018-10-07T09:31:29.483Z,12.27
2018-10-07T09:33:57.770Z,12.87
2018-10-07T09:36:26.067Z,11.97
2018-10-07T09:38:54.355Z,12.20
2018-10-07T09:41:22.634Z,12.00
2018-10-07T09:43:50.931Z,12.50
2018-10-07T09:46:19.411Z,11.57
2018-10-07T09:48:47.723Z,12.33
2018-10-07T09:51:16.219Z,12.03
2018-10-07T09:53:44.507Z,12.80
2018-10-07T09:56:12.807Z,10.77
2018-10-07T09:58:41.096Z,12.50
2018-10-07T10:01:09.461Z,12.53
2018-10-07T10:03:37.691Z,11.10
2018-10-07T10:06:07.625Z,12.43
2018-10-07T10:08:35.891Z,11.30
2018-10-07T10:11:04.248Z,14.17
2018-10-07T10:13:32.519Z,10.80
2018-10-07T10:16:00.815Z,12.47
2018-10-07T10:18:29.102Z,11.03
2018-10-07T10:20:57.407Z,11.30
2018-10-07T10:23:25.703Z,11.40
2018-10-07T10:25:53.999Z,13.67
2018-10-07T10:28:22.306Z,12.03
2018-10-07T10:30:50.618Z,12.00
2018-10-07T10:33:18.973Z,11.13
2018-10-07T10:35:47.239Z,11.63
2018-10-07T10:38:15.539Z,11.77
2018-10-07T10:40:43.843Z,11.27
2018-10-07T10:43:12.163Z,11.33
2018-10-07T10:45:40.488Z,12.33
2018-10-07T10:48:08.836Z,12.90
2018-10-07T10:50:37.079Z,11.53
2018-10-07T10:53:05.369Z,12.63
2018-10-07T10:55:33.971Z,11.63
2018-10-07T10:58:02.275Z,11.27
2018-10-07T11:00:30.563Z,12.03
2018-10-07T11:02:58.884Z,11.17
2018-10-07T11:05:27.213Z,11.87
2018-10-07T11:07:55.515Z,11.37
2018-10-07T11:10:23.803Z,12.57
2018-10-07T11:12:52.107Z,10.70
2018-10-07T11:15:20.442Z,11.70
2018-10-07T11:17:48.687Z,11.00
2018-10-07T11:20:17.003Z,10.73
2018-10-07T11:22:45.291Z,11.57
2018-10-07T11:25:13.590Z,11.77
2018-10-07T11:27:41.887Z,11.33
2018-10-07T11:30:10.183Z,12.07
2018-10-07T11:32:38.482Z,11.60
2018-10-07T11:35:06.792Z,11.13
2018-10-07T11:37:35.105Z,11.93
2018-10-07T11:40:03.462Z,10.67
2018-10-07T11:42:31.726Z,10.77
2018-10-07T11:45:00.023Z,11.63
2018-10-07T11:47:28.310Z,10.97
2018-10-07T11:49:56.614Z,10.90
2018-10-07T11:52:24.902Z,11.90
2018-10-07T11:54:52.895Z,11.10
2018-10-07T11:57:21.204Z,11.27
2018-10-07T11:59:49.494Z,11.27
2018-10-07T12:02:17.881Z,13.00
2018-10-07T12:04:46.100Z,12.63
2018-10-07T12:07:14.387Z,11.20
2018-10-07T12:09:42.683Z,10.60
2018-10-07T12:12:10.979Z,12.30
2018-10-07T12:14:39.275Z,11.40
2018-10-07T12:17:07.584Z,11.67
2018-10-07T12:19:35.863Z,10.33
2018-10-07T12:22:04.151Z,11.07
2018-10-07T12:24:32.534Z,10.63
2018-10-07T12:27:00.831Z,9.40
2018-10-07T12:29:29.147Z,15.80
2018-10-07T12:31:57.431Z,10.70
2018-10-07T12:34:25.719Z,10.70
2018-10-07T12:36:54.081Z,11.00
2018-10-07T12:39:22.363Z,9.07
2018-10-07T12:41:50.655Z,10.10
2018-10-07T12:44:18.951Z,9.43
2018-10-07T12:46:47.235Z,11.53
2018-10-07T12:49:15.543Z,10.23
2018-10-07T12:51:43.843Z,10.83
2018-10-07T12:54:12.383Z,10.57
2018-10-07T12:56:40.435Z,14.13
2018-10-07T12:59:08.726Z,11.17
2018-10-07T13:01:37.019Z,10.60
2018-10-07T13:04:05.332Z,11.10
2018-10-07T13:06:33.627Z,9.53
2018-10-07T13:09:01.922Z,9.23
2018-10-07T13:11:30.227Z,10.80
2018-10-07T13:13:58.523Z,9.57
2018-10-07T13:16:26.815Z,10.57
2018-10-07T13:18:55.121Z,10.80
2018-10-07T13:21:23.411Z,10.73
2018-10-07T13:23:51.700Z,10.00
2018-10-07T13:26:19.290Z,10.30
2018-10-07T13:28:47.352Z,11.60
2018-10-07T13:31:15.627Z,9.70
2018-10-07T13:33:43.992Z,15.30
2018-10-07T13:36:12.211Z,10.43
2018-10-07T13:38:40.495Z,10.90
2018-10-07T13:41:08.814Z,9.30
2018-10-07T13:43:37.092Z,9.70
2018-10-07T13:46:05.370Z,10.50
2018-10-07T13:48:33.666Z,9.60
2018-10-07T13:51:01.951Z,10.70
2018-10-07T13:53:30.270Z,10.60
2018-10-07T13:55:58.552Z,10.77
2018-10-07T13:58:26.830Z,9.93
2018-10-07T14:00:55.115Z,10.63
2018-10-07T14:03:23.433Z,10.20
2018-10-07T14:05:51.695Z,11.20
2018-10-07T14:08:19.998Z,11.20
2018-10-07T14:10:48.293Z,10.23
2018-10-07T14:13:16.574Z,10.17
2018-10-07T14:15:44.863Z,10.70
2018-10-07T14:18:13.167Z,10.73
2018-10-07T14:20:41.454Z,10.83
2018-10-07T14:23:09.742Z,11.40
2018-10-07T14:25:38.048Z,20.87
2018-10-07T14:28:06.344Z,10.10
2018-10-07T14:30:34.629Z,10.67
2018-10-07T14:33:02.230Z,11.33
2018-10-07T14:35:30.287Z,10.50
2018-10-07T14:37:59.295Z,11.00
2018-10-07T14:40:27.594Z,11.10
2018-10-07T14:42:55.870Z,12.33
2018-10-07T14:45:24.171Z,11.40
2018-10-07T14:47:52.479Z,11.10
2018-10-07T14:50:20.771Z,11.40
2018-10-07T14:52:49.059Z,10.40
2018-10-07T14:55:17.462Z,9.83
2018-10-07T14:57:45.774Z,10.80
2018-10-07T15:00:14.067Z,10.53
2018-10-07T15:02:42.367Z,10.30
2018-10-07T15:05:10.663Z,11.23
2018-10-07T15:07:38.955Z,11.33
2018-10-07T15:10:07.278Z,11.43
2018-10-07T15:12:35.574Z,10.60
2018-10-07T15:15:03.863Z,10.20
2018-10-07T15:17:32.170Z,10.67
2018-10-07T15:20:00.464Z,10.40
2018-10-07T15:22:28.754Z,10.50
2018-10-07T15:24:57.059Z,10.90
2018-10-07T15:27:25.350Z,10.93
2018-10-07T15:29:53.700Z,9.67
2018-10-07T15:32:21.945Z,10.80
2018-10-07T15:34:50.246Z,10.50
2018-10-07T15:37:18.532Z,10.43
2018-10-07T15:39:46.835Z,10.97
2018-10-07T15:42:15.131Z,10.73
2018-10-07T15:44:43.426Z,12.37
2018-10-07T15:47:11.727Z,12.07
2018-10-07T15:49:40.020Z,10.50
2018-10-07T15:52:08.312Z,11.17
2018-10-07T15:54:36.614Z,11.67
2018-10-07T15:57:04.899Z,12.10
2018-10-07T15:59:33.195Z,11.00
2018-10-07T16:02:01.498Z,12.20
2018-10-07T16:04:29.790Z,12.60
2018-10-07T16:06:58.085Z,12.83
2018-10-07T16:09:26.391Z,12.83
2018-10-07T16:11:54.679Z,11.43
2018-10-07T16:14:22.975Z,13.83
2018-10-07T16:16:51.278Z,12.70
2018-10-07T16:19:19.577Z,13.90
2018-10-07T16:21:47.866Z,12.13
2018-10-07T16:24:16.206Z,12.90
2018-10-07T16:26:44.582Z,11.60
2018-10-07T16:29:12.751Z,13.00
2018-10-07T16:31:41.050Z,12.47
2018-10-07T16:34:09.334Z,12.10
2018-10-07T16:36:37.635Z,12.03
2018-10-07T16:39:05.976Z,13.77
2018-10-07T16:41:34.215Z,14.47
2018-10-07T16:44:02.523Z,17.17
2018-10-07T16:46:30.808Z,16.33
2018-10-07T16:48:59.103Z,17.10
2018-10-07T16:51:27.399Z,16.50
2018-10-07T16:53:55.683Z,16.00
2018-10-07T16:56:23.971Z,16.80
2018-10-07T16:58:52.271Z,17.00
2018-10-07T17:01:20.559Z,16.67
2018-10-07T17:03:48.851Z,16.03
2018-10-07T17:06:17.148Z,18.23
2018-10-07T17:08:45.439Z,15.77
2018-10-07T17:11:13.727Z,17.60
2018-10-07T17:13:42.027Z,18.00
2018-10-07T17:16:10.312Z,17.27
2018-10-07T17:18:38.595Z,17.57
2018-10-07T17:21:06.943Z,17.07
2018-10-07T17:23:35.183Z,17.80
2018-10-07T17:26:03.483Z,17.80
2018-10-07T17:28:31.767Z,16.80
2018-10-07T17:31:00.051Z,18.00
2018-10-07T17:33:28.351Z,18.77
2018-10-07T17:35:56.630Z,19.13
2018-10-07T17:38:24.935Z,19.13
2018-10-07T17:40:53.215Z,17.23
2018-10-07T17:43:21.519Z,19.03
2018-10-07T17:45:49.800Z,20.80
2018-10-07T17:48:18.215Z,18.70
2018-10-07T17:50:46.387Z,20.67
2018-10-07T17:53:14.671Z,21.30
2018-10-07T17:55:42.967Z,21.77
2018-10-07T17:58:11.429Z,24.03
2018-10-07T18:00:39.715Z,22.93
2018-10-07T18:03:08.084Z,24.67
2018-10-07T18:05:36.296Z,23.27
2018-10-07T18:08:04.578Z,25.10
2018-10-07T18:10:32.890Z,24.57
2018-10-07T18:13:01.171Z,28.30
2018-10-07T18:15:29.461Z,27.30
2018-10-07T18:17:57.999Z,31.03
2018-10-07T18:20:26.250Z,30.40
2018-10-07T18:22:54.536Z,31.43
2018-10-07T18:25:22.835Z,30.93
2018-10-07T18:27:51.126Z,32.60
2018-10-07T18:30:19.419Z,30.30
2018-10-07T18:32:47.727Z,29.13
2018-10-07T18:35:16.030Z,29.20
2018-10-07T18:37:44.315Z,32.00
2018-10-07T18:40:13.724Z,32.27
2018-10-07T18:42:41.995Z,31.27
2018-10-07T18:45:10.287Z,30.07
2018-10-07T18:47:38.652Z,30.30
2018-10-07T18:50:07.067Z,29.50
2018-10-07T18:52:35.362Z,31.27
2018-10-07T18:55:04.438Z,29.83
2018-10-07T18:57:32.731Z,29.87
2018-10-07T19:00:01.043Z,32.00
2018-10-07T19:02:29.433Z,32.03
2018-10-07T19:04:57.737Z,32.13
2018-10-07T19:07:26.178Z,30.37
2018-10-07T19:09:54.619Z,30.53
2018-10-07T19:12:23.070Z,31.17
2018-10-07T19:14:51.555Z,29.13
2018-10-07T19:17:20.040Z,30.27
2018-10-07T19:19:48.386Z,30.37
2018-10-07T19:22:16.732Z,30.27
2018-10-07T19:24:45.146Z,29.87
2018-10-07T19:27:13.551Z,29.60
2018-10-07T19:29:41.946Z,32.23
2018-10-07T19:32:10.320Z,30.53
2018-10-07T19:34:38.689Z,28.67
2018-10-07T19:37:07.036Z,29.37
2018-10-07T19:39:35.332Z,30.80
2018-10-07T19:42:03.627Z,29.87
2018-10-07T19:44:31.992Z,29.57
2018-10-07T19:47:00.355Z,29.90
2018-10-07T19:49:28.684Z,29.70
2018-10-07T19:51:56.975Z,30.20
2018-10-07T19:54:25.300Z,30.70
2018-10-07T19:56:53.608Z,29.27
2018-10-07T19:59:21.941Z,30.80
2018-10-07T20:01:50.244Z,29.57
2018-10-07T20:04:18.557Z,29.80
2018-10-07T20:06:46.858Z,30.37
2018-10-07T20:09:15.166Z,29.13
2018-10-07T20:11:43.466Z,30.40
2018-10-07T20:14:11.768Z,29.70
2018-10-07T20:16:40.063Z,29.43
2018-10-07T20:19:08.408Z,30.77
2018-10-07T20:21:36.666Z,29.80
2018-10-07T20:24:04.959Z,30.20
2018-10-07T20:26:33.271Z,31.27
2018-10-07T20:29:01.573Z,28.80
2018-10-07T20:31:29.855Z,31.60
2018-10-07T20:33:58.303Z,30.13
2018-10-07T20:36:26.579Z,30.40
2018-10-07T20:38:54.874Z,28.80
2018-10-07T20:41:23.790Z,31.17
2018-10-07T20:43:52.110Z,31.10
2018-10-07T20:46:20.438Z,31.90
2018-10-07T20:48:48.719Z,31.30
2018-10-07T20:51:17.024Z,31.03
2018-10-07T20:53:45.337Z,30.87
2018-10-07T20:56:13.623Z,32.30
2018-10-07T20:58:41.930Z,31.17
2018-10-07T21:01:10.223Z,29.80
2018-10-07T21:03:38.511Z,29.90
2018-10-07T21:06:06.823Z,30.97
2018-10-07T21:08:35.119Z,33.00
2018-10-07T21:11:03.410Z,29.50
2018-10-07T21:13:31.717Z,30.90
2018-10-07T21:16:00.007Z,30.60
2018-10-07T21:18:28.319Z,31.10
2018-10-07T21:20:56.639Z,31.67
2018-10-07T21:23:24.932Z,31.10
2018-10-07T21:25:53.239Z,32.33
2018-10-07T21:28:21.571Z,31.27
2018-10-07T21:30:49.831Z,32.03
2018-10-07T21:33:18.135Z,32.67
2018-10-07T21:35:46.427Z,32.33
2018-10-07T21:38:14.734Z,30.90
2018-10-07T21:40:43.028Z,31.63
2018-10-07T21:43:11.339Z,31.60
2018-10-07T21:45:39.647Z,31.60
2018-10-07T21:48:07.939Z,32.43
2018-10-07T21:50:36.231Z,33.20
2018-10-07T21:53:04.543Z,30.23
2018-10-07T21:55:32.843Z,32.90
2018-10-07T21:58:01.146Z,31.37
2018-10-07T22:00:29.443Z,31.07
2018-10-07T22:02:57.730Z,33.67
2018-10-07T22:05:26.363Z,30.50
2018-10-07T22:07:54.659Z,30.40
2018-10-07T22:10:22.955Z,31.13
2018-10-07T22:12:51.271Z,31.73
2018-10-07T22:15:19.564Z,33.17
2018-10-07T22:17:47.866Z,32.23
2018-10-07T22:20:16.179Z,30.90
2018-10-07T22:22:44.463Z,33.67
2018-10-07T22:25:12.775Z,33.07
2018-10-07T22:27:41.067Z,33.17
2018-10-07T22:30:09.364Z,34.20
2018-10-07T22:32:37.670Z,31.97
2018-10-07T22:35:05.959Z,32.23
2018-10-07T22:37:34.282Z,32.97
2018-10-07T22:40:02.579Z,33.27
2018-10-07T22:42:30.871Z,33.20
2018-10-07T22:44:59.289Z,35.00
2018-10-07T22:47:27.587Z,35.17
2018-10-07T22:49:56.217Z,32.10
2018-10-07T22:52:24.639Z,34.20
2018-10-07T22:54:52.931Z,33.20
2018-10-07T22:57:21.307Z,34.53
2018-10-07T22:59:49.598Z,35.40
2018-10-07T23:02:17.903Z,35.03
2018-10-07T23:04:46.225Z,37.13
2018-10-07T23:07:14.518Z,33.63
2018-10-07T23:09:42.828Z,34.57
2018-10-07T23:12:11.132Z,32.23
2018-10-07T23:14:39.430Z,35.53
2018-10-07T23:17:07.763Z,34.40
2018-10-07T23:19:36.128Z,33.00
2018-10-07T23:22:04.469Z,34.77
2018-10-07T23:24:32.776Z,33.13
2018-10-07T23:27:01.083Z,32.60
2018-10-07T23:29:29.377Z,36.60
2018-10-07T23:31:57.678Z,34.20
2018-10-07T23:34:25.966Z,36.60
2018-10-07T23:36:54.271Z,32.67
2018-10-07T23:39:22.567Z,33.60
2018-10-07T23:41:50.855Z,36.77
2018-10-07T23:44:19.169Z,34.60
2018-10-07T23:46:48.279Z,34.60
2018-10-07T23:49:16.570Z,34.10
2018-10-07T23:51:44.929Z,34.50
2018-10-07T23:54:13.188Z,31.97
2018-10-07T23:56:41.479Z,35.10
2018-10-07T23:59:09.771Z,33.63
